sensor_id;sensor_type;location;lat;lon;timestamp;pressure;altitude;pressure_sealevel;temperature;humidity
73422;BME280;61637;47.760;-122.022;2022-08-05T00:00:00;101930.339;;;17.7;unknown
73422;BME280;61637;47.760;-122.022;2022-08-05T00:02:00;101930.339;;;17.8;unknown
73422;BME280;61637;47.760;-122.022;2022-08-05T00:04:00;101930.339;;;17.8;unknown
73422;BME280;61637;47.760;-122.022;2022-08-05T00:06:00;101930.339;;;17.8;unknown
73422;BME280;61637;47.760;-122.022;2022-08-05T00:08:00;101930.339;;;17.8;unknown
73422;BME280;61637;47.760;-122.022;2022-08-05T00:10:01;101930.339;;;17.9;unknown
73422;BME280;61637;47.760;-122.022;2022-08-05T00:12:01;101930.339;;;17.9;unknown
73422;BME280;61637;47.760;-122.022;2022-08-05T00:14:00;101930.339;;;18.0;unknown
73422;BME280;61637;47.760;-122.022;2022-08-05T00:16:00;101930.339;;;18.1;unknown
73422;BME280;61637;47.760;-122.022;2022-08-05T00:18:00;101930.339;;;18.1;unknown
73422;BME280;61637;47.760;-122.022;2022-08-05T00:20:00;101930.339;;;18.1;unknown
73422;BME280;61637;47.760;-122.022;2022-08-05T00:22:00;101930.339;;;18.1;unknown
73422;BME280;61637;47.760;-122.022;2022-08-05T00:24:00;101930.339;;;18.1;unknown
73422;BME280;61637;47.760;-122.022;2022-08-05T00:26:00;101930.339;;;18.0;unknown
73422;BME280;61637;47.760;-122.022;2022-08-05T00:28:00;101930.339;;;18.1;unknown
73422;BME280;61637;47.760;-122.022;2022-08-05T00:30:00;101930.339;;;18.1;unknown
73422;BME280;61637;47.760;-122.022;2022-08-05T00:32:00;101930.339;;;18.0;unknown
73422;BME280;61637;47.760;-122.022;2022-08-05T00:34:01;101930.339;;;18.1;unknown
73422;BME280;61637;47.760;-122.022;2022-08-05T00:36:00;101930.339;;;18.1;unknown
73422;BME280;61637;47.760;-122.022;2022-08-05T00:38:00;101930.339;;;18.1;unknown
73422;BME280;61637;47.760;-122.022;2022-08-05T00:40:00;101930.339;;;18.1;unknown
73422;BME280;61637;47.760;-122.022;2022-08-05T00:42:00;101930.339;;;18.1;unknown
73422;BME280;61637;47.760;-122.022;2022-08-05T00:44:00;101930.339;;;18.2;unknown
73422;BME280;61637;47.760;-122.022;2022-08-05T00:46:00;101930.339;;;18.2;unknown
73422;BME280;61637;47.760;-122.022;2022-08-05T00:48:00;101930.339;;;18.2;unknown
73422;BME280;61637;47.760;-122.022;2022-08-05T00:50:00;101930.339;;;18.3;unknown
73422;BME280;61637;47.760;-122.022;2022-08-05T00:52:00;101930.339;;;18.3;unknown
73422;BME280;61637;47.760;-122.022;2022-08-05T00:54:00;101930.339;;;18.3;unknown
73422;BME280;61637;47.760;-122.022;2022-08-05T00:56:00;101930.339;;;18.3;unknown
73422;BME280;61637;47.760;-122.022;2022-08-05T00:58:00;101930.339;;;18.2;unknown
73422;BME280;61637;47.760;-122.022;2022-08-05T01:00:01;101930.339;;;18.2;unknown
73422;BME280;61637;47.760;-122.022;2022-08-05T01:02:00;101930.339;;;18.2;unknown
73422;BME280;61637;47.760;-122.022;2022-08-05T01:04:00;101930.339;;;18.2;unknown
73422;BME280;61637;47.760;-122.022;2022-08-05T01:06:00;101930.339;;;18.2;unknown
73422;BME280;61637;47.760;-122.022;2022-08-05T01:08:00;101930.339;;;18.1;unknown
73422;BME280;61637;47.760;-122.022;2022-08-05T01:10:00;101930.339;;;18.1;unknown
73422;BME280;61637;47.760;-122.022;2022-08-05T01:12:01;101930.339;;;18.1;unknown
73422;BME280;61637;47.760;-122.022;2022-08-05T01:14:03;101930.339;;;17.9;unknown
73422;BME280;61637;47.760;-122.022;2022-08-05T01:16:01;101930.339;;;17.9;unknown
73422;BME280;61637;47.760;-122.022;2022-08-05T01:18:02;101930.339;;;17.8;unknown
73422;BME280;61637;47.760;-122.022;2022-08-05T01:20:12;101930.339;;;17.8;unknown
73422;BME280;61637;47.760;-122.022;2022-08-05T01:22:08;101930.339;;;17.8;unknown
73422;BME280;61637;47.760;-122.022;2022-08-05T01:24:04;101930.339;;;17.7;unknown
73422;BME280;61637;47.760;-122.022;2022-08-05T01:26:04;101930.339;;;17.7;unknown
73422;BME280;61637;47.760;-122.022;2022-08-05T01:30:01;101930.339;;;17.6;unknown
73422;BME280;61637;47.760;-122.022;2022-08-05T01:32:01;101930.339;;;17.6;unknown
73422;BME280;61637;47.760;-122.022;2022-08-05T01:34:02;101930.339;;;17.6;unknown
73422;BME280;61637;47.760;-122.022;2022-08-05T01:36:01;101930.339;;;17.6;unknown
73422;BME280;61637;47.760;-122.022;2022-08-05T01:38:00;101930.339;;;17.6;unknown
73422;BME280;61637;47.760;-122.022;2022-08-05T01:40:00;101930.339;;;17.5;unknown
73422;BME280;61637;47.760;-122.022;2022-08-05T01:42:00;101930.339;;;17.5;unknown
73422;BME280;61637;47.760;-122.022;2022-08-05T01:44:00;101930.339;;;17.4;unknown
73422;BME280;61637;47.760;-122.022;2022-08-05T01:46:00;101930.339;;;17.4;unknown
73422;BME280;61637;47.760;-122.022;2022-08-05T01:48:00;101930.339;;;17.4;unknown
73422;BME280;61637;47.760;-122.022;2022-08-05T01:50:00;101930.339;;;17.4;unknown
73422;BME280;61637;47.760;-122.022;2022-08-05T01:52:01;101930.339;;;17.3;unknown
73422;BME280;61637;47.760;-122.022;2022-08-05T01:54:01;101930.339;;;17.3;unknown
73422;BME280;61637;47.760;-122.022;2022-08-05T01:56:01;101930.339;;;17.3;unknown
73422;BME280;61637;47.760;-122.022;2022-08-05T01:58:00;101930.339;;;17.2;unknown
73422;BME280;61637;47.760;-122.022;2022-08-05T02:00:01;101930.339;;;17.3;unknown
73422;BME280;61637;47.760;-122.022;2022-08-05T02:02:00;101930.339;;;17.2;unknown
73422;BME280;61637;47.760;-122.022;2022-08-05T02:04:00;101930.339;;;17.2;unknown
73422;BME280;61637;47.760;-122.022;2022-08-05T02:06:00;101930.339;;;17.2;unknown
73422;BME280;61637;47.760;-122.022;2022-08-05T02:08:01;101930.339;;;17.2;unknown
73422;BME280;61637;47.760;-122.022;2022-08-05T02:10:00;101930.339;;;17.2;unknown
73422;BME280;61637;47.760;-122.022;2022-08-05T02:12:02;101930.339;;;17.2;unknown
73422;BME280;61637;47.760;-122.022;2022-08-05T02:14:01;101930.339;;;17.2;unknown
73422;BME280;61637;47.760;-122.022;2022-08-05T02:16:01;101930.339;;;17.2;unknown
73422;BME280;61637;47.760;-122.022;2022-08-05T02:18:01;101930.339;;;17.2;unknown
73422;BME280;61637;47.760;-122.022;2022-08-05T02:20:02;101930.339;;;17.2;unknown
73422;BME280;61637;47.760;-122.022;2022-08-05T02:22:01;101930.339;;;17.2;unknown
73422;BME280;61637;47.760;-122.022;2022-08-05T02:24:01;101930.339;;;17.2;unknown
73422;BME280;61637;47.760;-122.022;2022-08-05T02:26:01;101930.339;;;17.2;unknown
73422;BME280;61637;47.760;-122.022;2022-08-05T02:28:01;101930.339;;;17.2;unknown
73422;BME280;61637;47.760;-122.022;2022-08-05T02:30:00;101930.339;;;17.2;unknown
73422;BME280;61637;47.760;-122.022;2022-08-05T02:32:00;101930.339;;;17.2;unknown
73422;BME280;61637;47.760;-122.022;2022-08-05T02:34:01;101930.339;;;17.2;unknown
73422;BME280;61637;47.760;-122.022;2022-08-05T02:36:00;101930.339;;;17.2;unknown
73422;BME280;61637;47.760;-122.022;2022-08-05T02:38:00;101930.339;;;17.2;unknown
73422;BME280;61637;47.760;-122.022;2022-08-05T02:40:00;101930.339;;;17.2;unknown
73422;BME280;61637;47.760;-122.022;2022-08-05T02:42:01;101930.339;;;17.2;unknown
73422;BME280;61637;47.760;-122.022;2022-08-05T02:44:00;101930.339;;;17.1;unknown
73422;BME280;61637;47.760;-122.022;2022-08-05T02:46:00;101930.339;;;17.1;unknown
73422;BME280;61637;47.760;-122.022;2022-08-05T02:48:00;101930.339;;;17.1;unknown
73422;BME280;61637;47.760;-122.022;2022-08-05T02:50:00;101930.339;;;17.1;unknown
73422;BME280;61637;47.760;-122.022;2022-08-05T02:52:00;101930.339;;;17.1;unknown
73422;BME280;61637;47.760;-122.022;2022-08-05T02:54:00;101930.339;;;17.0;unknown
73422;BME280;61637;47.760;-122.022;2022-08-05T02:56:00;101930.339;;;17.0;unknown
73422;BME280;61637;47.760;-122.022;2022-08-05T02:58:00;101930.339;;;17.0;unknown
73422;BME280;61637;47.760;-122.022;2022-08-05T03:00:00;101930.339;;;16.9;unknown
73422;BME280;61637;47.760;-122.022;2022-08-05T03:02:00;101930.339;;;16.9;unknown
73422;BME280;61637;47.760;-122.022;2022-08-05T03:04:02;101930.339;;;16.9;unknown
73422;BME280;61637;47.760;-122.022;2022-08-05T03:06:00;101930.339;;;16.9;unknown
73422;BME280;61637;47.760;-122.022;2022-08-05T03:08:01;101930.339;;;16.9;unknown
73422;BME280;61637;47.760;-122.022;2022-08-05T03:10:00;101930.339;;;16.9;unknown
73422;BME280;61637;47.760;-122.022;2022-08-05T03:12:00;101930.339;;;16.9;unknown
73422;BME280;61637;47.760;-122.022;2022-08-05T03:14:00;101930.339;;;16.8;unknown
73422;BME280;61637;47.760;-122.022;2022-08-05T03:16:00;101930.339;;;16.8;unknown
73422;BME280;61637;47.760;-122.022;2022-08-05T03:18:00;101930.339;;;16.8;unknown
73422;BME280;61637;47.760;-122.022;2022-08-05T03:20:00;101930.339;;;16.8;unknown
73422;BME280;61637;47.760;-122.022;2022-08-05T03:22:00;101930.339;;;16.7;unknown
73422;BME280;61637;47.760;-122.022;2022-08-05T03:24:00;101930.339;;;16.7;unknown
73422;BME280;61637;47.760;-122.022;2022-08-05T03:26:00;101930.339;;;16.7;unknown
73422;BME280;61637;47.760;-122.022;2022-08-05T03:28:00;101930.339;;;16.6;unknown
73422;BME280;61637;47.760;-122.022;2022-08-05T03:30:00;101930.339;;;16.6;unknown
73422;BME280;61637;47.760;-122.022;2022-08-05T03:32:01;101930.339;;;16.5;unknown
73422;BME280;61637;47.760;-122.022;2022-08-05T03:34:00;101930.339;;;16.5;unknown
73422;BME280;61637;47.760;-122.022;2022-08-05T03:36:00;101930.339;;;16.4;unknown
73422;BME280;61637;47.760;-122.022;2022-08-05T03:38:00;101930.339;;;16.4;unknown
73422;BME280;61637;47.760;-122.022;2022-08-05T03:40:00;101930.339;;;16.3;unknown
73422;BME280;61637;47.760;-122.022;2022-08-05T03:42:00;101930.339;;;16.3;unknown
73422;BME280;61637;47.760;-122.022;2022-08-05T03:44:01;101930.339;;;16.3;unknown
73422;BME280;61637;47.760;-122.022;2022-08-05T03:46:00;101930.339;;;16.2;unknown
73422;BME280;61637;47.760;-122.022;2022-08-05T03:48:00;101930.339;;;16.1;unknown
73422;BME280;61637;47.760;-122.022;2022-08-05T03:50:00;101930.339;;;15.9;unknown
73422;BME280;61637;47.760;-122.022;2022-08-05T03:52:01;101930.339;;;15.8;unknown
73422;BME280;61637;47.760;-122.022;2022-08-05T03:54:02;101930.339;;;15.8;unknown
73422;BME280;61637;47.760;-122.022;2022-08-05T03:56:02;101930.339;;;15.7;unknown
73422;BME280;61637;47.760;-122.022;2022-08-05T03:58:00;101930.339;;;15.6;unknown
73422;BME280;61637;47.760;-122.022;2022-08-05T04:00:02;101930.339;;;15.5;unknown
73422;BME280;61637;47.760;-122.022;2022-08-05T04:02:00;101930.339;;;15.4;unknown
73422;BME280;61637;47.760;-122.022;2022-08-05T04:04:00;101930.339;;;15.3;unknown
73422;BME280;61637;47.760;-122.022;2022-08-05T04:06:00;101930.339;;;15.3;unknown
73422;BME280;61637;47.760;-122.022;2022-08-05T04:08:01;101930.339;;;15.2;unknown
73422;BME280;61637;47.760;-122.022;2022-08-05T04:10:00;101930.339;;;15.1;unknown
73422;BME280;61637;47.760;-122.022;2022-08-05T04:12:00;101930.339;;;15.1;unknown
73422;BME280;61637;47.760;-122.022;2022-08-05T04:14:00;101930.339;;;15.0;unknown
73422;BME280;61637;47.760;-122.022;2022-08-05T04:16:00;101930.339;;;14.9;unknown
73422;BME280;61637;47.760;-122.022;2022-08-05T04:18:00;101930.339;;;14.9;unknown
73422;BME280;61637;47.760;-122.022;2022-08-05T04:20:00;101930.339;;;14.8;unknown
73422;BME280;61637;47.760;-122.022;2022-08-05T04:22:00;101930.339;;;14.8;unknown
73422;BME280;61637;47.760;-122.022;2022-08-05T04:24:01;101930.339;;;14.7;unknown
73422;BME280;61637;47.760;-122.022;2022-08-05T04:26:00;101930.339;;;14.7;unknown
73422;BME280;61637;47.760;-122.022;2022-08-05T04:28:00;101930.339;;;14.6;unknown
73422;BME280;61637;47.760;-122.022;2022-08-05T04:30:00;101930.339;;;14.6;unknown
73422;BME280;61637;47.760;-122.022;2022-08-05T04:32:01;101930.339;;;14.6;unknown
73422;BME280;61637;47.760;-122.022;2022-08-05T04:34:00;101930.339;;;14.5;unknown
73422;BME280;61637;47.760;-122.022;2022-08-05T04:36:00;101930.339;;;14.4;unknown
73422;BME280;61637;47.760;-122.022;2022-08-05T04:38:00;101930.339;;;14.4;unknown
73422;BME280;61637;47.760;-122.022;2022-08-05T04:40:00;101930.339;;;14.4;unknown
73422;BME280;61637;47.760;-122.022;2022-08-05T04:42:00;101930.339;;;14.3;unknown
73422;BME280;61637;47.760;-122.022;2022-08-05T04:44:00;101930.339;;;14.3;unknown
73422;BME280;61637;47.760;-122.022;2022-08-05T04:46:00;101930.339;;;14.3;unknown
73422;BME280;61637;47.760;-122.022;2022-08-05T04:48:03;101930.339;;;14.3;unknown
73422;BME280;61637;47.760;-122.022;2022-08-05T04:50:00;101930.339;;;14.2;unknown
73422;BME280;61637;47.760;-122.022;2022-08-05T04:52:00;101930.339;;;14.2;unknown
73422;BME280;61637;47.760;-122.022;2022-08-05T04:54:00;101930.339;;;14.1;unknown
73422;BME280;61637;47.760;-122.022;2022-08-05T04:56:00;101930.339;;;14.1;unknown
73422;BME280;61637;47.760;-122.022;2022-08-05T04:58:00;101930.339;;;14.1;unknown
73422;BME280;61637;47.760;-122.022;2022-08-05T05:00:00;101930.339;;;14.0;unknown
73422;BME280;61637;47.760;-122.022;2022-08-05T05:02:00;101930.339;;;13.9;unknown
73422;BME280;61637;47.760;-122.022;2022-08-05T05:04:00;101930.339;;;13.9;unknown
73422;BME280;61637;47.760;-122.022;2022-08-05T05:06:00;101930.339;;;13.9;unknown
73422;BME280;61637;47.760;-122.022;2022-08-05T05:08:01;101930.339;;;13.9;unknown
73422;BME280;61637;47.760;-122.022;2022-08-05T05:10:00;101930.339;;;13.8;unknown
73422;BME280;61637;47.760;-122.022;2022-08-05T05:12:00;101930.339;;;13.8;unknown
73422;BME280;61637;47.760;-122.022;2022-08-05T05:14:00;101930.339;;;13.7;unknown
73422;BME280;61637;47.760;-122.022;2022-08-05T05:16:00;101930.339;;;13.7;unknown
73422;BME280;61637;47.760;-122.022;2022-08-05T05:18:00;101930.339;;;13.7;unknown
73422;BME280;61637;47.760;-122.022;2022-08-05T05:20:00;101930.339;;;13.6;unknown
73422;BME280;61637;47.760;-122.022;2022-08-05T05:22:00;101930.339;;;13.6;unknown
73422;BME280;61637;47.760;-122.022;2022-08-05T05:24:00;101930.339;;;13.6;unknown
73422;BME280;61637;47.760;-122.022;2022-08-05T05:26:00;101930.339;;;13.6;unknown
73422;BME280;61637;47.760;-122.022;2022-08-05T05:28:00;101930.339;;;13.5;unknown
73422;BME280;61637;47.760;-122.022;2022-08-05T05:30:00;101930.339;;;13.5;unknown
73422;BME280;61637;47.760;-122.022;2022-08-05T05:32:00;101930.339;;;13.5;unknown
73422;BME280;61637;47.760;-122.022;2022-08-05T05:34:00;101930.339;;;13.4;unknown
73422;BME280;61637;47.760;-122.022;2022-08-05T05:36:00;101930.339;;;13.4;unknown
73422;BME280;61637;47.760;-122.022;2022-08-05T05:38:01;101930.339;;;13.4;unknown
73422;BME280;61637;47.760;-122.022;2022-08-05T05:40:00;101930.339;;;13.4;unknown
73422;BME280;61637;47.760;-122.022;2022-08-05T05:42:00;101930.339;;;13.3;unknown
73422;BME280;61637;47.760;-122.022;2022-08-05T05:44:00;101930.339;;;13.3;unknown
73422;BME280;61637;47.760;-122.022;2022-08-05T05:46:00;101930.339;;;13.3;unknown
73422;BME280;61637;47.760;-122.022;2022-08-05T05:48:00;101930.339;;;13.3;unknown
73422;BME280;61637;47.760;-122.022;2022-08-05T05:50:00;101930.339;;;13.3;unknown
73422;BME280;61637;47.760;-122.022;2022-08-05T05:52:00;101930.339;;;13.2;unknown
73422;BME280;61637;47.760;-122.022;2022-08-05T05:54:00;101930.339;;;13.2;unknown
73422;BME280;61637;47.760;-122.022;2022-08-05T05:56:00;101930.339;;;13.2;unknown
73422;BME280;61637;47.760;-122.022;2022-08-05T05:58:00;101930.339;;;13.2;unknown
73422;BME280;61637;47.760;-122.022;2022-08-05T06:00:00;101930.339;;;13.1;unknown
73422;BME280;61637;47.760;-122.022;2022-08-05T06:02:00;101930.339;;;13.1;unknown
73422;BME280;61637;47.760;-122.022;2022-08-05T06:04:00;101930.339;;;13.1;unknown
73422;BME280;61637;47.760;-122.022;2022-08-05T06:06:00;101930.339;;;13.0;unknown
73422;BME280;61637;47.760;-122.022;2022-08-05T06:08:00;101930.339;;;13.0;unknown
73422;BME280;61637;47.760;-122.022;2022-08-05T06:10:00;101930.339;;;12.9;unknown
73422;BME280;61637;47.760;-122.022;2022-08-05T06:12:00;101930.339;;;12.9;unknown
73422;BME280;61637;47.760;-122.022;2022-08-05T06:14:00;101930.339;;;12.9;unknown
73422;BME280;61637;47.760;-122.022;2022-08-05T06:16:00;101930.339;;;12.9;unknown
73422;BME280;61637;47.760;-122.022;2022-08-05T06:18:00;101930.339;;;12.8;unknown
73422;BME280;61637;47.760;-122.022;2022-08-05T06:20:01;101930.339;;;12.9;unknown
73422;BME280;61637;47.760;-122.022;2022-08-05T06:22:00;101930.339;;;12.8;unknown
73422;BME280;61637;47.760;-122.022;2022-08-05T06:24:00;101930.339;;;12.8;unknown
73422;BME280;61637;47.760;-122.022;2022-08-05T06:26:00;101930.339;;;12.8;unknown
73422;BME280;61637;47.760;-122.022;2022-08-05T06:28:00;101930.339;;;12.8;unknown
73422;BME280;61637;47.760;-122.022;2022-08-05T06:30:00;101930.339;;;12.8;unknown
73422;BME280;61637;47.760;-122.022;2022-08-05T06:32:00;101930.339;;;12.7;unknown
73422;BME280;61637;47.760;-122.022;2022-08-05T06:34:00;101930.339;;;12.7;unknown
73422;BME280;61637;47.760;-122.022;2022-08-05T06:36:00;101930.339;;;12.7;unknown
73422;BME280;61637;47.760;-122.022;2022-08-05T06:38:00;101930.339;;;12.7;unknown
73422;BME280;61637;47.760;-122.022;2022-08-05T06:40:00;101930.339;;;12.7;unknown
73422;BME280;61637;47.760;-122.022;2022-08-05T06:42:00;101930.339;;;12.7;unknown
73422;BME280;61637;47.760;-122.022;2022-08-05T06:44:00;101930.339;;;12.7;unknown
73422;BME280;61637;47.760;-122.022;2022-08-05T06:46:00;101930.339;;;12.6;unknown
73422;BME280;61637;47.760;-122.022;2022-08-05T06:48:00;101930.339;;;12.6;unknown
73422;BME280;61637;47.760;-122.022;2022-08-05T06:50:00;101930.339;;;12.6;unknown
73422;BME280;61637;47.760;-122.022;2022-08-05T06:52:00;101930.339;;;12.6;unknown
73422;BME280;61637;47.760;-122.022;2022-08-05T06:54:01;101930.339;;;12.6;unknown
73422;BME280;61637;47.760;-122.022;2022-08-05T06:56:00;101930.339;;;12.5;unknown
73422;BME280;61637;47.760;-122.022;2022-08-05T06:58:00;101930.339;;;12.5;unknown
73422;BME280;61637;47.760;-122.022;2022-08-05T07:00:00;101930.339;;;12.4;unknown
73422;BME280;61637;47.760;-122.022;2022-08-05T07:02:00;101930.339;;;12.4;unknown
73422;BME280;61637;47.760;-122.022;2022-08-05T07:04:00;101930.339;;;12.4;unknown
73422;BME280;61637;47.760;-122.022;2022-08-05T07:06:00;101930.339;;;12.4;unknown
73422;BME280;61637;47.760;-122.022;2022-08-05T07:08:01;101930.339;;;12.3;unknown
73422;BME280;61637;47.760;-122.022;2022-08-05T07:10:00;101930.339;;;12.3;unknown
73422;BME280;61637;47.760;-122.022;2022-08-05T07:12:00;101930.339;;;12.3;unknown
73422;BME280;61637;47.760;-122.022;2022-08-05T07:14:00;101930.339;;;12.3;unknown
73422;BME280;61637;47.760;-122.022;2022-08-05T07:16:00;101930.339;;;12.3;unknown
73422;BME280;61637;47.760;-122.022;2022-08-05T07:18:00;101930.339;;;12.2;unknown
73422;BME280;61637;47.760;-122.022;2022-08-05T07:20:00;101930.339;;;12.2;unknown
73422;BME280;61637;47.760;-122.022;2022-08-05T07:22:00;101930.339;;;12.2;unknown
73422;BME280;61637;47.760;-122.022;2022-08-05T07:24:01;101930.339;;;12.2;unknown
73422;BME280;61637;47.760;-122.022;2022-08-05T07:26:00;101930.339;;;12.2;unknown
73422;BME280;61637;47.760;-122.022;2022-08-05T07:28:00;101930.339;;;12.2;unknown
73422;BME280;61637;47.760;-122.022;2022-08-05T07:30:00;101930.339;;;12.2;unknown
73422;BME280;61637;47.760;-122.022;2022-08-05T07:32:00;101930.339;;;12.2;unknown
73422;BME280;61637;47.760;-122.022;2022-08-05T07:34:00;101930.339;;;12.1;unknown
73422;BME280;61637;47.760;-122.022;2022-08-05T07:36:00;101930.339;;;12.1;unknown
73422;BME280;61637;47.760;-122.022;2022-08-05T07:38:00;101930.339;;;12.1;unknown
73422;BME280;61637;47.760;-122.022;2022-08-05T07:40:00;101930.339;;;12.1;unknown
73422;BME280;61637;47.760;-122.022;2022-08-05T07:42:00;101930.339;;;12.1;unknown
73422;BME280;61637;47.760;-122.022;2022-08-05T07:44:01;101930.339;;;12.1;unknown
73422;BME280;61637;47.760;-122.022;2022-08-05T07:46:00;101930.339;;;12.0;unknown
73422;BME280;61637;47.760;-122.022;2022-08-05T07:48:00;101930.339;;;11.9;unknown
73422;BME280;61637;47.760;-122.022;2022-08-05T07:50:00;101930.339;;;11.9;unknown
73422;BME280;61637;47.760;-122.022;2022-08-05T07:52:00;101930.339;;;11.9;unknown
73422;BME280;61637;47.760;-122.022;2022-08-05T07:54:00;101930.339;;;11.9;unknown
73422;BME280;61637;47.760;-122.022;2022-08-05T07:56:00;101930.339;;;11.9;unknown
73422;BME280;61637;47.760;-122.022;2022-08-05T07:58:00;101930.339;;;11.8;unknown
73422;BME280;61637;47.760;-122.022;2022-08-05T08:00:00;101930.339;;;11.8;unknown
73422;BME280;61637;47.760;-122.022;2022-08-05T08:02:00;101930.339;;;11.8;unknown
73422;BME280;61637;47.760;-122.022;2022-08-05T08:04:00;101930.339;;;11.8;unknown
73422;BME280;61637;47.760;-122.022;2022-08-05T08:06:00;101930.339;;;11.8;unknown
73422;BME280;61637;47.760;-122.022;2022-08-05T08:08:00;101930.339;;;11.8;unknown
73422;BME280;61637;47.760;-122.022;2022-08-05T08:10:00;101930.339;;;11.8;unknown
73422;BME280;61637;47.760;-122.022;2022-08-05T08:12:00;101930.339;;;11.7;unknown
73422;BME280;61637;47.760;-122.022;2022-08-05T08:14:00;101930.339;;;11.7;unknown
73422;BME280;61637;47.760;-122.022;2022-08-05T08:16:00;101930.339;;;11.7;unknown
73422;BME280;61637;47.760;-122.022;2022-08-05T08:18:00;101930.339;;;11.7;unknown
73422;BME280;61637;47.760;-122.022;2022-08-05T08:20:00;101930.339;;;11.7;unknown
73422;BME280;61637;47.760;-122.022;2022-08-05T08:22:00;101930.339;;;11.7;unknown
73422;BME280;61637;47.760;-122.022;2022-08-05T08:24:00;101930.339;;;11.6;unknown
73422;BME280;61637;47.760;-122.022;2022-08-05T08:26:00;101930.339;;;11.6;unknown
73422;BME280;61637;47.760;-122.022;2022-08-05T08:28:00;101930.339;;;11.6;unknown
73422;BME280;61637;47.760;-122.022;2022-08-05T08:30:00;101930.339;;;11.6;unknown
73422;BME280;61637;47.760;-122.022;2022-08-05T08:32:00;101930.339;;;11.6;unknown
73422;BME280;61637;47.760;-122.022;2022-08-05T08:34:00;101930.339;;;11.6;unknown
73422;BME280;61637;47.760;-122.022;2022-08-05T08:36:00;101930.339;;;11.6;unknown
73422;BME280;61637;47.760;-122.022;2022-08-05T08:38:00;101930.339;;;11.6;unknown
73422;BME280;61637;47.760;-122.022;2022-08-05T08:40:00;101930.339;;;11.6;unknown
73422;BME280;61637;47.760;-122.022;2022-08-05T08:42:00;101930.339;;;11.6;unknown
73422;BME280;61637;47.760;-122.022;2022-08-05T08:44:00;101930.339;;;11.5;unknown
73422;BME280;61637;47.760;-122.022;2022-08-05T08:46:00;101930.339;;;11.5;unknown
73422;BME280;61637;47.760;-122.022;2022-08-05T08:48:00;101930.339;;;11.5;unknown
73422;BME280;61637;47.760;-122.022;2022-08-05T08:50:01;101930.339;;;11.5;unknown
73422;BME280;61637;47.760;-122.022;2022-08-05T08:52:02;101930.339;;;11.5;unknown
73422;BME280;61637;47.760;-122.022;2022-08-05T08:54:00;101930.339;;;11.5;unknown
73422;BME280;61637;47.760;-122.022;2022-08-05T08:56:00;101930.339;;;11.5;unknown
73422;BME280;61637;47.760;-122.022;2022-08-05T08:58:00;101930.339;;;11.5;unknown
73422;BME280;61637;47.760;-122.022;2022-08-05T09:00:00;101930.339;;;11.5;unknown
73422;BME280;61637;47.760;-122.022;2022-08-05T09:02:01;101930.339;;;11.5;unknown
73422;BME280;61637;47.760;-122.022;2022-08-05T09:04:00;101930.339;;;11.5;unknown
73422;BME280;61637;47.760;-122.022;2022-08-05T09:06:00;101930.339;;;11.5;unknown
73422;BME280;61637;47.760;-122.022;2022-08-05T09:08:00;101930.339;;;11.5;unknown
73422;BME280;61637;47.760;-122.022;2022-08-05T09:10:00;101930.339;;;11.5;unknown
73422;BME280;61637;47.760;-122.022;2022-08-05T09:12:01;101930.339;;;11.5;unknown
73422;BME280;61637;47.760;-122.022;2022-08-05T09:14:00;101930.339;;;11.4;unknown
73422;BME280;61637;47.760;-122.022;2022-08-05T09:16:00;101930.339;;;11.5;unknown
73422;BME280;61637;47.760;-122.022;2022-08-05T09:18:00;101930.339;;;11.4;unknown
73422;BME280;61637;47.760;-122.022;2022-08-05T09:20:01;101930.339;;;11.4;unknown
73422;BME280;61637;47.760;-122.022;2022-08-05T09:22:00;101930.339;;;11.4;unknown
73422;BME280;61637;47.760;-122.022;2022-08-05T09:24:01;101930.339;;;11.4;unknown
73422;BME280;61637;47.760;-122.022;2022-08-05T09:26:08;101930.339;;;11.4;unknown
73422;BME280;61637;47.760;-122.022;2022-08-05T09:30:00;101930.339;;;11.4;unknown
73422;BME280;61637;47.760;-122.022;2022-08-05T09:32:01;101930.339;;;11.3;unknown
73422;BME280;61637;47.760;-122.022;2022-08-05T09:34:01;101930.339;;;11.3;unknown
73422;BME280;61637;47.760;-122.022;2022-08-05T09:36:01;101930.339;;;11.3;unknown
73422;BME280;61637;47.760;-122.022;2022-08-05T09:38:04;101930.339;;;11.3;unknown
73422;BME280;61637;47.760;-122.022;2022-08-05T09:40:00;101930.339;;;11.3;unknown
73422;BME280;61637;47.760;-122.022;2022-08-05T09:42:01;101930.339;;;11.2;unknown
73422;BME280;61637;47.760;-122.022;2022-08-05T09:44:01;101930.339;;;11.2;unknown
73422;BME280;61637;47.760;-122.022;2022-08-05T09:46:00;101930.339;;;11.2;unknown
73422;BME280;61637;47.760;-122.022;2022-08-05T09:48:00;101930.339;;;11.2;unknown
73422;BME280;61637;47.760;-122.022;2022-08-05T09:50:00;101930.339;;;11.2;unknown